Time;durP1;ratioP1;P1;durP2;ratioP2;P2;SDS_P1;SDS_P2;PMS_P1;PMS_P2;Temp;Humidity;BMP_temperature;BMP_pressure;BME280_temperature;BME280_humidity;BME280_pressure;Samples;Min_cycle;Max_cycle;Signal;HPM_P1;HPM_P2
2020/12/08 00:00:28;;;;;;;14.27;8.43;;;3.10;99.90;;;;;;5116045;27;20286;-78
2020/12/08 00:02:55;;;;;;;12.67;8.47;;;3.20;99.90;;;;;;5113336;27;20285;-76
2020/12/08 00:05:22;;;;;;;13.23;8.47;;;3.30;99.90;;;;;;5117494;27;20654;-77
2020/12/08 00:07:48;;;;;;;13.47;8.27;;;3.40;99.90;;;;;;5132983;27;20329;-78
2020/12/08 00:10:18;;;;;;;13.70;8.10;;;3.50;99.90;;;;;;5132982;27;20194;-78
2020/12/08 00:12:45;;;;;;;15.50;9.13;;;3.70;99.90;;;;;;5132991;27;20290;-76
2020/12/08 00:15:12;;;;;;;13.50;8.00;;;3.60;99.90;;;;;;5132868;27;20258;-78
2020/12/08 00:17:38;;;;;;;13.23;8.33;;;3.70;99.90;;;;;;5132769;27;20239;-77
2020/12/08 00:20:07;;;;;;;12.33;8.30;;;3.60;99.90;;;;;;5126625;27;20200;-77
2020/12/08 00:22:33;;;;;;;11.73;7.97;;;3.70;99.90;;;;;;5132413;27;20195;-77
2020/12/08 00:25:00;;;;;;;13.03;7.73;;;3.60;99.90;;;;;;5133226;27;20203;-78
2020/12/08 00:27:26;;;;;;;13.10;7.83;;;3.60;99.90;;;;;;5132811;27;20207;-77
2020/12/08 00:29:52;;;;;;;12.03;7.90;;;3.70;99.90;;;;;;5118783;27;20208;-76
2020/12/08 00:32:19;;;;;;;11.93;7.43;;;3.70;99.90;;;;;;5132766;27;20294;-78
2020/12/08 00:34:46;;;;;;;10.33;7.20;;;3.70;99.90;;;;;;5132578;27;20203;-77
2020/12/08 00:37:12;;;;;;;13.17;7.40;;;3.70;99.90;;;;;;5132669;27;20203;-77
2020/12/08 00:39:38;;;;;;;10.77;7.03;;;3.70;99.90;;;;;;5133127;27;20293;-78
2020/12/08 00:42:06;;;;;;;10.73;6.77;;;3.70;99.90;;;;;;5132719;27;20201;-78
2020/12/08 00:44:32;;;;;;;12.47;7.57;;;3.60;99.90;;;;;;5133308;27;20236;-76
2020/12/08 00:46:59;;;;;;;10.93;6.93;;;3.60;99.90;;;;;;5132587;27;20306;-77
2020/12/08 00:49:26;;;;;;;12.23;8.17;;;3.50;99.90;;;;;;5133001;27;20228;-76
2020/12/08 00:51:56;;;;;;;11.67;7.40;;;3.50;99.90;;;;;;5132397;27;20197;-80
2020/12/08 00:54:22;;;;;;;12.90;7.70;;;3.50;99.90;;;;;;5132802;27;20202;-76
2020/12/08 00:56:49;;;;;;;11.70;7.57;;;3.40;99.90;;;;;;5132229;27;20627;-78
2020/12/08 00:59:15;;;;;;;12.67;8.13;;;3.20;99.90;;;;;;5135677;27;20209;-77
2020/12/08 01:01:41;;;;;;;13.57;7.80;;;3.10;99.90;;;;;;5136700;27;20204;-77
2020/12/08 01:04:09;;;;;;;15.13;7.97;;;3.20;99.90;;;;;;5136864;27;20276;-77
2020/12/08 01:06:36;;;;;;;11.17;7.30;;;3.20;99.90;;;;;;5136298;27;20237;-78
2020/12/08 01:09:03;;;;;;;16.30;8.47;;;3.00;99.90;;;;;;5136866;27;20206;-77
2020/12/08 01:11:29;;;;;;;16.13;8.17;;;3.00;99.90;;;;;;5136758;27;20538;-79
2020/12/08 01:13:56;;;;;;;12.80;7.73;;;2.80;99.90;;;;;;5136425;27;20647;-78
2020/12/08 01:16:24;;;;;;;13.43;7.97;;;2.70;99.90;;;;;;5136210;27;20631;-77
2020/12/08 01:18:51;;;;;;;12.17;7.67;;;2.60;99.90;;;;;;5136459;27;20202;-78
2020/12/08 01:21:17;;;;;;;12.60;7.67;;;2.50;99.90;;;;;;5136458;27;20274;-77
2020/12/08 01:23:45;;;;;;;15.40;8.97;;;2.50;99.90;;;;;;5136557;27;20198;-78
2020/12/08 01:26:11;;;;;;;12.70;7.70;;;2.50;99.90;;;;;;5135406;27;20213;-78
2020/12/08 01:28:37;;;;;;;11.73;7.40;;;2.60;99.90;;;;;;5136245;27;20209;-75
2020/12/08 01:31:04;;;;;;;15.13;8.73;;;2.60;99.90;;;;;;5136175;27;20213;-76
2020/12/08 01:33:30;;;;;;;17.93;8.73;;;2.70;99.90;;;;;;5136148;27;20224;-77
2020/12/08 01:35:56;;;;;;;13.90;7.90;;;2.90;99.90;;;;;;5136076;27;20308;-78
2020/12/08 01:38:23;;;;;;;12.50;8.10;;;2.90;99.90;;;;;;5128260;27;20287;-77
2020/12/08 01:40:54;;;;;;;14.50;8.40;;;3.00;99.90;;;;;;5144250;27;20696;-77
2020/12/08 01:43:20;;;;;;;17.37;8.63;;;3.10;99.90;;;;;;5135535;27;20195;-77
2020/12/08 01:45:47;;;;;;;14.47;8.30;;;3.20;99.90;;;;;;5136056;27;20292;-77
2020/12/08 01:48:14;;;;;;;15.40;8.70;;;3.20;99.90;;;;;;5135309;27;20290;-77
2020/12/08 01:50:41;;;;;;;12.70;8.37;;;3.10;99.90;;;;;;5136127;27;20292;-77
2020/12/08 01:53:10;;;;;;;14.83;8.77;;;3.10;99.90;;;;;;5135510;27;20286;-78
2020/12/08 01:55:38;;;;;;;14.13;8.90;;;3.10;99.90;;;;;;5135806;27;20284;-78
2020/12/08 01:58:14;;;;;;;14.93;9.00;;;3.20;99.90;;;;;;5137078;27;20207;-78
2020/12/08 02:00:40;;;;;;;13.83;8.33;;;3.10;99.90;;;;;;5142644;27;20218;-78
2020/12/08 02:03:07;;;;;;;12.23;8.27;;;3.20;99.90;;;;;;5144005;27;20636;-78
2020/12/08 02:05:33;;;;;;;15.37;8.73;;;3.30;99.90;;;;;;5145454;27;20200;-78
2020/12/08 02:07:59;;;;;;;15.00;9.03;;;3.50;99.90;;;;;;5139768;27;20214;-78
2020/12/08 02:10:26;;;;;;;14.17;8.63;;;3.40;99.90;;;;;;5146675;27;20201;-78
2020/12/08 02:12:52;;;;;;;16.43;9.40;;;3.40;99.90;;;;;;5149036;27;20191;-78
2020/12/08 02:15:19;;;;;;;16.00;9.23;;;3.30;99.90;;;;;;5148607;27;20217;-78
2020/12/08 02:17:46;;;;;;;13.57;8.97;;;3.30;99.90;;;;;;5136655;27;20283;-78
2020/12/08 02:20:13;;;;;;;13.37;8.87;;;3.30;99.90;;;;;;5135524;27;20282;-77
2020/12/08 02:22:42;;;;;;;14.60;9.03;;;3.40;99.90;;;;;;5135421;27;20223;-76
2020/12/08 02:25:09;;;;;;;14.20;8.53;;;3.50;99.90;;;;;;5135612;27;20195;-77
2020/12/08 02:27:35;;;;;;;13.00;8.70;;;3.70;99.90;;;;;;5135031;27;20310;-77
2020/12/08 02:30:02;;;;;;;16.57;9.13;;;3.60;99.90;;;;;;5135418;27;20229;-77
2020/12/08 02:32:28;;;;;;;16.17;9.37;;;3.50;99.90;;;;;;5134782;27;20204;-77
2020/12/08 02:34:56;;;;;;;16.53;9.47;;;3.60;99.90;;;;;;5134895;27;20205;-77
2020/12/08 02:37:23;;;;;;;15.03;8.90;;;3.60;99.90;;;;;;5134825;27;20223;-76
2020/12/08 02:39:50;;;;;;;13.60;8.60;;;3.60;99.90;;;;;;5134956;27;20219;-76
2020/12/08 02:42:16;;;;;;;13.77;9.03;;;3.50;99.90;;;;;;5134793;27;20204;-77
2020/12/08 02:44:42;;;;;;;12.80;8.40;;;3.50;99.90;;;;;;5134962;27;20200;-77
2020/12/08 02:47:09;;;;;;;13.30;8.63;;;3.40;99.90;;;;;;5134415;27;20580;-78
2020/12/08 02:49:35;;;;;;;13.60;8.90;;;3.40;99.90;;;;;;5134906;27;20575;-77
2020/12/08 02:52:02;;;;;;;13.50;8.67;;;3.30;99.90;;;;;;5134713;27;20207;-76
2020/12/08 02:54:29;;;;;;;16.20;9.67;;;3.40;99.90;;;;;;5135178;27;20202;-77
2020/12/08 02:56:55;;;;;;;15.37;9.17;;;3.40;99.90;;;;;;5133714;27;20705;-77
2020/12/08 02:59:22;;;;;;;15.00;8.93;;;3.50;99.90;;;;;;5134999;27;20286;-77
2020/12/08 03:01:48;;;;;;;14.83;9.57;;;3.60;99.90;;;;;;5135279;27;20221;-77
2020/12/08 03:04:15;;;;;;;14.67;8.17;;;3.60;99.90;;;;;;5138188;27;20257;-78
2020/12/08 03:06:42;;;;;;;14.43;9.60;;;3.70;99.90;;;;;;5146580;27;20207;-79
2020/12/08 03:09:08;;;;;;;14.20;8.83;;;3.80;99.90;;;;;;5145128;27;20585;-79
2020/12/08 03:11:35;;;;;;;14.10;8.53;;;3.80;99.90;;;;;;5147025;27;20577;-80
2020/12/08 03:14:02;;;;;;;14.97;9.17;;;3.90;99.90;;;;;;5145868;27;20277;-78
2020/12/08 03:16:28;;;;;;;15.97;9.60;;;3.90;99.90;;;;;;5145112;27;20325;-79
2020/12/08 03:18:54;;;;;;;16.57;9.20;;;3.90;99.90;;;;;;5136885;27;20543;-77
2020/12/08 03:21:21;;;;;;;17.13;9.47;;;3.90;99.90;;;;;;5133643;27;20198;-76
2020/12/08 03:23:47;;;;;;;15.60;9.33;;;4.00;99.90;;;;;;5134185;27;20285;-78
2020/12/08 03:26:19;;;;;;;15.23;8.93;;;4.00;99.90;;;;;;5133597;27;20683;-78
2020/12/08 03:28:47;;;;;;;15.33;9.20;;;4.00;99.90;;;;;;5134284;27;20212;-76
2020/12/08 03:31:13;;;;;;;15.17;9.50;;;4.00;99.90;;;;;;5133952;27;20248;-77
2020/12/08 03:33:39;;;;;;;15.00;9.77;;;4.00;99.90;;;;;;5133940;27;20571;-77
2020/12/08 03:36:11;;;;;;;18.13;9.80;;;4.00;99.90;;;;;;5133410;27;20229;-76
2020/12/08 03:38:37;;;;;;;17.30;10.00;;;4.00;99.90;;;;;;5133714;27;20671;-76
2020/12/08 03:41:03;;;;;;;17.07;9.70;;;4.10;99.90;;;;;;5133771;27;20199;-77
2020/12/08 03:43:30;;;;;;;15.50;9.20;;;3.90;99.90;;;;;;5133472;27;20196;-77
2020/12/08 03:45:57;;;;;;;14.47;9.10;;;3.70;99.90;;;;;;5133466;27;20268;-78
2020/12/08 03:48:23;;;;;;;14.47;9.57;;;3.60;99.90;;;;;;5133633;27;20208;-76
2020/12/08 03:50:50;;;;;;;16.53;9.67;;;3.70;99.90;;;;;;5133705;27;20201;-77
2020/12/08 03:53:16;;;;;;;15.57;8.97;;;3.70;99.90;;;;;;5133282;27;20318;-77
2020/12/08 03:55:42;;;;;;;16.10;9.63;;;3.80;99.90;;;;;;5133795;27;20252;-78
2020/12/08 03:58:08;;;;;;;16.73;9.33;;;3.90;99.90;;;;;;5133288;27;20212;-77
2020/12/08 04:00:35;;;;;;;16.63;9.90;;;4.00;99.90;;;;;;5129275;27;20222;-77
2020/12/08 04:03:03;;;;;;;15.67;9.57;;;4.00;99.90;;;;;;5122107;27;20207;-77
2020/12/08 04:05:29;;;;;;;20.00;10.30;;;4.10;99.90;;;;;;5134103;27;20204;-78
2020/12/08 04:07:55;;;;;;;20.27;10.37;;;4.10;99.90;;;;;;5132656;27;20294;-76
2020/12/08 04:10:21;;;;;;;16.60;9.60;;;4.00;99.90;;;;;;5140954;27;20198;-78
2020/12/08 04:12:48;;;;;;;16.20;9.97;;;4.00;99.90;;;;;;5139628;27;20284;-78
2020/12/08 04:15:14;;;;;;;20.20;9.73;;;4.00;99.90;;;;;;5133154;27;20292;-77
2020/12/08 04:17:40;;;;;;;16.77;8.97;;;4.00;99.90;;;;;;5133211;27;20490;-76
2020/12/08 04:20:08;;;;;;;16.57;9.13;;;4.00;99.90;;;;;;5128890;27;20193;-77
2020/12/08 04:22:35;;;;;;;14.90;9.17;;;4.00;99.90;;;;;;5121014;27;20198;-76
2020/12/08 04:25:01;;;;;;;15.77;9.33;;;4.00;99.90;;;;;;5131713;27;20708;-78
2020/12/08 04:27:27;;;;;;;14.77;8.60;;;3.90;99.90;;;;;;5114708;27;20286;-78
2020/12/08 04:29:54;;;;;;;14.83;8.77;;;3.90;99.90;;;;;;5113558;27;20285;-77
2020/12/08 04:32:20;;;;;;;13.33;8.43;;;4.00;99.90;;;;;;5113375;27;20230;-77
2020/12/08 04:34:46;;;;;;;13.97;8.90;;;4.00;99.90;;;;;;5112414;27;20196;-77
2020/12/08 04:37:14;;;;;;;15.97;8.90;;;4.10;99.90;;;;;;5111598;27;20220;-78
2020/12/08 04:39:40;;;;;;;17.80;9.00;;;3.90;99.90;;;;;;5114815;27;20259;-76
2020/12/08 04:42:07;;;;;;;17.10;8.97;;;4.00;99.90;;;;;;5115965;27;20205;-77
2020/12/08 04:44:33;;;;;;;16.00;9.90;;;4.00;99.90;;;;;;5132927;27;20275;-77
2020/12/08 04:47:03;;;;;;;14.73;9.17;;;4.10;99.90;;;;;;5132842;27;20234;-75
2020/12/08 04:49:29;;;;;;;16.73;9.40;;;4.10;99.90;;;;;;5130837;27;20198;-77
2020/12/08 04:51:56;;;;;;;19.80;10.40;;;4.00;99.90;;;;;;5132229;27;20348;-78
2020/12/08 04:54:23;;;;;;;15.13;8.57;;;4.10;99.90;;;;;;5132822;27;20258;-78
2020/12/08 04:56:49;;;;;;;18.60;9.00;;;4.20;99.90;;;;;;5139014;27;20718;-78
2020/12/08 04:59:20;;;;;;;17.53;9.70;;;4.20;99.90;;;;;;5146654;27;20220;-78
2020/12/08 05:01:46;;;;;;;16.83;9.20;;;4.10;99.90;;;;;;5135111;27;20198;-77
2020/12/08 05:04:12;;;;;;;16.73;9.57;;;4.10;99.90;;;;;;5124655;27;20573;-78
2020/12/08 05:06:39;;;;;;;17.20;9.70;;;4.20;99.90;;;;;;5126232;27;20259;-78
2020/12/08 05:09:07;;;;;;;15.03;8.97;;;4.10;99.90;;;;;;5125962;27;20592;-78
2020/12/08 05:11:35;;;;;;;16.87;9.27;;;4.10;99.90;;;;;;5123387;27;20255;-79
2020/12/08 05:14:03;;;;;;;18.43;9.50;;;3.90;99.90;;;;;;5121430;27;20252;-77
2020/12/08 05:16:30;;;;;;;22.13;10.53;;;4.00;99.90;;;;;;5113139;27;20227;-77
2020/12/08 05:19:07;;;;;;;19.60;10.27;;;3.70;99.90;;;;;;5114818;27;20205;-77
2020/12/08 05:21:33;;;;;;;16.77;10.13;;;3.60;99.90;;;;;;5115690;27;20199;-77
2020/12/08 05:24:00;;;;;;;21.70;10.00;;;3.40;99.90;;;;;;5113676;27;20665;-77
2020/12/08 05:26:27;;;;;;;16.60;9.23;;;3.40;99.90;;;;;;5111913;27;20203;-76
2020/12/08 05:29:01;;;;;;;18.80;10.20;;;3.40;99.90;;;;;;5112707;27;20290;-77
2020/12/08 05:31:28;;;;;;;17.87;9.80;;;3.40;99.90;;;;;;5111472;27;20202;-76
2020/12/08 05:33:59;;;;;;;17.87;9.53;;;3.50;99.90;;;;;;5124654;27;20213;-76
2020/12/08 05:36:30;;;;;;;15.53;9.70;;;3.50;99.90;;;;;;5112469;27;20719;-77
2020/12/08 05:39:01;;;;;;;15.60;9.23;;;3.60;99.90;;;;;;5114250;27;20649;-77
2020/12/08 05:41:31;;;;;;;18.23;9.93;;;3.60;99.90;;;;;;5114932;27;20199;-76
2020/12/08 05:44:05;;;;;;;18.10;10.03;;;3.60;99.90;;;;;;5113242;27;20660;-76
2020/12/08 05:46:42;;;;;;;16.93;10.03;;;3.60;99.90;;;;;;5115075;27;20204;-77
2020/12/08 05:49:11;;;;;;;19.53;9.60;;;3.70;99.90;;;;;;5120326;27;20202;-77
2020/12/08 05:51:43;;;;;;;18.70;10.27;;;3.60;99.90;;;;;;5117262;27;20201;-75
2020/12/08 05:54:17;;;;;;;18.57;9.63;;;3.60;99.90;;;;;;5118118;27;20197;-79
2020/12/08 05:56:43;;;;;;;18.23;9.70;;;3.60;99.90;;;;;;5118710;27;20215;-79
2020/12/08 05:59:11;;;;;;;15.87;9.33;;;3.50;99.90;;;;;;5116431;27;20196;-78
2020/12/08 06:01:47;;;;;;;18.30;10.43;;;3.60;99.90;;;;;;5114737;27;20206;-78
2020/12/08 06:04:13;;;;;;;18.77;10.00;;;3.60;99.90;;;;;;5116601;27;20197;-77
2020/12/08 06:06:47;;;;;;;17.43;10.20;;;3.40;99.90;;;;;;5117987;27;20207;-78
2020/12/08 06:09:22;;;;;;;20.57;10.40;;;3.60;99.90;;;;;;5120572;27;20206;-77
2020/12/08 06:11:49;;;;;;;16.83;9.07;;;3.60;99.90;;;;;;5125878;27;20232;-79
2020/12/08 06:14:16;;;;;;;18.60;9.83;;;3.60;99.90;;;;;;5129553;27;20477;-78
2020/12/08 06:16:43;;;;;;;17.17;9.63;;;3.50;99.90;;;;;;5134592;27;20258;-80
2020/12/08 06:19:09;;;;;;;20.83;10.43;;;3.70;99.90;;;;;;5134552;27;20210;-79
2020/12/08 06:21:39;;;;;;;16.10;9.03;;;3.60;99.90;;;;;;5128802;27;20285;-79
2020/12/08 06:24:05;;;;;;;19.07;10.30;;;3.60;99.90;;;;;;5128477;27;20208;-79
2020/12/08 06:26:34;;;;;;;19.57;10.50;;;3.60;99.90;;;;;;5126765;27;20287;-80
2020/12/08 06:29:07;;;;;;;16.77;9.20;;;3.40;99.90;;;;;;5122745;27;20253;-78
2020/12/08 06:31:41;;;;;;;23.70;10.93;;;3.20;99.90;;;;;;5121714;27;20195;-78
2020/12/08 06:34:09;;;;;;;19.20;10.23;;;3.10;99.90;;;;;;5127053;27;20543;-78
2020/12/08 06:36:35;;;;;;;19.13;10.43;;;3.00;99.90;;;;;;5130034;27;20314;-79
2020/12/08 06:39:04;;;;;;;21.93;10.10;;;3.00;99.90;;;;;;5125067;27;20749;-80
2020/12/08 06:41:31;;;;;;;18.30;9.80;;;3.00;99.90;;;;;;5131895;27;20231;-80
2020/12/08 06:43:58;;;;;;;19.30;10.80;;;3.10;99.90;;;;;;5134283;27;20204;-80
2020/12/08 06:46:25;;;;;;;22.63;11.20;;;3.00;99.90;;;;;;5131856;27;20202;-81
2020/12/08 06:49:03;;;;;;;31.67;17.67;;;2.90;99.90;;;;;;5131015;27;20918;-78
2020/12/08 06:51:30;;;;;;;27.73;13.17;;;2.60;99.90;;;;;;5134613;27;20225;-76
2020/12/08 06:53:57;;;;;;;28.10;12.87;;;2.80;99.90;;;;;;5133650;27;20190;-76
2020/12/08 06:56:31;;;;;;;26.13;12.87;;;2.80;99.90;;;;;;5133372;27;20221;-76
2020/12/08 06:58:57;;;;;;;24.70;11.63;;;2.60;99.90;;;;;;5127886;27;20682;-76
2020/12/08 07:01:23;;;;;;;22.33;11.40;;;2.50;99.90;;;;;;5134046;27;20213;-76
2020/12/08 07:03:52;;;;;;;23.10;11.77;;;2.50;99.90;;;;;;5133798;27;20202;-77
2020/12/08 07:06:19;;;;;;;23.50;12.50;;;2.20;99.90;;;;;;5134379;27;20275;-77
2020/12/08 07:08:47;;;;;;;24.07;12.83;;;2.20;99.90;;;;;;5134104;27;20215;-77
2020/12/08 07:11:17;;;;;;;30.50;14.27;;;2.30;99.90;;;;;;5134044;27;20602;-77
2020/12/08 07:13:57;;;;;;;24.23;13.37;;;2.30;99.90;;;;;;5133978;27;20206;-77
2020/12/08 07:16:25;;;;;;;23.63;12.07;;;2.20;99.90;;;;;;5133596;27;20680;-77
2020/12/08 07:18:52;;;;;;;23.30;12.17;;;2.20;99.90;;;;;;5134357;27;20211;-77
2020/12/08 07:21:19;;;;;;;24.13;12.63;;;2.20;99.90;;;;;;5134117;27;20285;-77
2020/12/08 07:23:46;;;;;;;22.97;12.63;;;2.00;99.90;;;;;;5134224;27;20216;-76
2020/12/08 07:26:15;;;;;;;25.57;12.60;;;2.10;99.90;;;;;;5133998;27;20206;-76
2020/12/08 07:28:41;;;;;;;22.43;11.80;;;2.30;99.90;;;;;;5133277;27;20278;-76
2020/12/08 07:31:17;;;;;;;25.20;13.03;;;2.30;99.90;;;;;;5133479;27;20655;-77
2020/12/08 07:33:44;;;;;;;22.50;11.13;;;2.20;99.90;;;;;;5122069;27;20216;-78
2020/12/08 07:36:25;;;;;;;25.33;12.43;;;2.30;99.90;;;;;;5133447;27;20666;-77
2020/12/08 07:38:52;;;;;;;24.97;12.57;;;2.30;99.90;;;;;;5132817;27;20255;-77
2020/12/08 07:41:20;;;;;;;21.83;10.70;;;2.40;99.90;;;;;;5132269;27;20678;-77
2020/12/08 07:43:47;;;;;;;21.90;11.97;;;2.30;99.90;;;;;;5133466;27;20750;-77
2020/12/08 07:46:21;;;;;;;22.87;11.77;;;2.30;99.90;;;;;;5133296;27;20199;-77
2020/12/08 07:48:47;;;;;;;23.23;11.90;;;2.30;99.90;;;;;;5133623;27;20301;-77
2020/12/08 07:51:13;;;;;;;26.37;12.13;;;2.30;99.90;;;;;;5133513;27;20211;-76
2020/12/08 07:53:40;;;;;;;20.60;11.30;;;2.40;99.90;;;;;;5132827;27;20197;-77
2020/12/08 07:56:07;;;;;;;21.00;11.03;;;2.50;99.90;;;;;;5133619;27;20222;-76
2020/12/08 07:58:33;;;;;;;22.60;11.37;;;2.50;99.90;;;;;;5135012;27;20198;-77
2020/12/08 08:00:59;;;;;;;25.37;12.00;;;2.50;99.90;;;;;;5144757;27;20710;-77
2020/12/08 08:03:26;;;;;;;24.97;12.33;;;2.50;99.90;;;;;;5143916;27;20293;-77
2020/12/08 08:05:52;;;;;;;24.83;12.07;;;2.60;99.90;;;;;;5142819;27;20282;-77
2020/12/08 08:08:23;;;;;;;21.43;11.17;;;2.60;99.90;;;;;;5141868;27;20202;-78
2020/12/08 08:10:50;;;;;;;19.13;11.20;;;2.60;99.90;;;;;;5141310;27;20191;-78
2020/12/08 08:13:20;;;;;;;22.67;11.97;;;2.70;99.90;;;;;;5142069;27;20281;-78
2020/12/08 08:15:47;;;;;;;23.97;12.70;;;2.70;99.90;;;;;;5133268;27;20210;-77
2020/12/08 08:18:14;;;;;;;22.37;12.07;;;2.70;99.90;;;;;;5132980;27;20206;-77
2020/12/08 08:20:40;;;;;;;20.50;11.63;;;2.80;99.90;;;;;;5133093;27;20195;-77
2020/12/08 08:23:06;;;;;;;19.33;11.87;;;2.90;99.90;;;;;;5133100;27;20291;-77
2020/12/08 08:25:33;;;;;;;22.57;12.27;;;3.00;99.90;;;;;;5132905;27;20580;-77
2020/12/08 08:28:00;;;;;;;26.40;12.47;;;3.10;99.90;;;;;;5133328;27;20693;-77
2020/12/08 08:30:26;;;;;;;29.73;12.43;;;3.30;99.90;;;;;;5132688;27;20294;-75
2020/12/08 08:32:53;;;;;;;21.97;12.07;;;3.40;99.90;;;;;;5129489;27;20204;-76
2020/12/08 08:35:20;;;;;;;25.20;11.90;;;3.50;99.90;;;;;;5132006;27;20290;-77
2020/12/08 08:37:47;;;;;;;24.57;12.90;;;3.70;99.90;;;;;;5131557;27;20541;-76
2020/12/08 08:40:13;;;;;;;28.33;12.67;;;3.80;99.90;;;;;;5132971;27;20199;-77
2020/12/08 08:42:39;;;;;;;27.90;12.90;;;4.00;99.90;;;;;;5133253;27;20230;-75
2020/12/08 08:45:06;;;;;;;25.43;12.70;;;4.10;99.90;;;;;;5132807;27;20302;-76
2020/12/08 08:47:33;;;;;;;26.17;13.00;;;4.10;99.90;;;;;;5132939;27;20211;-77
2020/12/08 08:49:59;;;;;;;30.30;13.27;;;4.20;99.90;;;;;;5132567;27;20196;-75
2020/12/08 08:52:26;;;;;;;29.23;12.80;;;4.50;99.90;;;;;;5132331;27;20566;-76
2020/12/08 08:54:52;;;;;;;23.57;11.40;;;4.30;99.90;;;;;;5132903;27;20247;-76
2020/12/08 08:57:18;;;;;;;22.87;11.70;;;4.20;99.90;;;;;;5132752;27;20229;-78
2020/12/08 08:59:46;;;;;;;24.07;11.63;;;4.30;99.90;;;;;;5132555;27;20245;-76
2020/12/08 09:02:14;;;;;;;27.30;12.17;;;4.50;99.90;;;;;;5132687;27;20196;-77
2020/12/08 09:04:40;;;;;;;26.87;13.33;;;4.60;99.90;;;;;;5132735;27;20302;-77
2020/12/08 09:07:06;;;;;;;23.20;12.33;;;4.90;99.90;;;;;;5132579;27;20218;-77
2020/12/08 09:09:33;;;;;;;27.97;12.43;;;4.40;99.90;;;;;;5132447;27;20287;-77
2020/12/08 09:12:00;;;;;;;31.10;12.37;;;4.50;99.90;;;;;;5132528;27;20202;-77
2020/12/08 09:14:27;;;;;;;19.87;11.20;;;4.30;99.90;;;;;;5132908;28;20282;-77
2020/12/08 09:16:54;;;;;;;20.97;11.60;;;4.50;99.90;;;;;;5131373;27;20680;-76
2020/12/08 09:19:21;;;;;;;22.13;11.13;;;4.30;99.90;;;;;;5133316;27;20209;-77
2020/12/08 09:21:49;;;;;;;22.60;11.60;;;4.30;99.90;;;;;;5135707;27;20190;-77
2020/12/08 09:24:16;;;;;;;21.00;10.97;;;4.20;99.90;;;;;;5135808;27;20194;-76
2020/12/08 09:26:42;;;;;;;19.77;11.10;;;4.20;99.90;;;;;;5135973;27;20747;-76
2020/12/08 09:29:09;;;;;;;16.83;10.60;;;4.30;99.90;;;;;;5136472;27;20281;-77
2020/12/08 09:31:35;;;;;;;18.63;10.60;;;4.30;99.90;;;;;;5136197;27;20203;-76
2020/12/08 09:34:02;;;;;;;18.57;10.50;;;4.40;99.90;;;;;;5136110;27;20293;-77
2020/12/08 09:36:29;;;;;;;17.13;10.23;;;4.50;99.90;;;;;;5136541;27;20226;-76
2020/12/08 09:38:56;;;;;;;18.73;11.07;;;4.70;99.90;;;;;;5136020;27;20206;-77
2020/12/08 09:41:22;;;;;;;17.87;10.30;;;4.90;99.90;;;;;;5135797;27;20657;-77
2020/12/08 09:43:48;;;;;;;15.33;9.50;;;4.80;99.90;;;;;;5136354;27;20198;-78
2020/12/08 09:46:15;;;;;;;16.43;10.80;;;4.90;99.90;;;;;;5135623;27;20251;-78
2020/12/08 09:48:41;;;;;;;17.20;10.27;;;5.00;99.90;;;;;;5135413;27;20533;-77
2020/12/08 09:51:07;;;;;;;18.63;10.13;;;5.20;99.90;;;;;;5135741;27;20283;-77
2020/12/08 09:53:34;;;;;;;17.60;10.00;;;5.40;99.90;;;;;;5135946;27;20203;-76
2020/12/08 09:56:01;;;;;;;18.33;10.00;;;5.60;99.90;;;;;;5133195;27;20196;-75
2020/12/08 09:58:27;;;;;;;16.63;10.03;;;5.80;99.90;;;;;;5135081;27;20286;-76
2020/12/08 10:00:53;;;;;;;18.80;10.77;;;5.90;99.90;;;;;;5135406;27;20218;-77
2020/12/08 10:03:20;;;;;;;19.83;10.60;;;6.00;99.90;;;;;;5135179;27;20751;-78
2020/12/08 10:05:46;;;;;;;28.00;13.13;;;6.10;99.90;;;;;;5135325;27;20566;-78
2020/12/08 10:08:12;;;;;;;17.33;10.73;;;6.20;99.90;;;;;;5135547;27;20282;-75
2020/12/08 10:10:39;;;;;;;19.80;11.03;;;6.30;99.90;;;;;;5135443;27;20199;-78
2020/12/08 10:13:06;;;;;;;22.57;11.97;;;6.00;99.90;;;;;;5134646;27;20513;-77
2020/12/08 10:15:35;;;;;;;20.93;12.50;;;5.60;99.90;;;;;;5135158;27;20294;-76
2020/12/08 10:18:02;;;;;;;22.17;11.67;;;5.40;99.90;;;;;;5135055;27;20222;-76
2020/12/08 10:20:28;;;;;;;20.43;11.37;;;5.30;99.90;;;;;;5134440;27;20235;-76
2020/12/08 10:22:54;;;;;;;21.40;12.13;;;5.20;99.90;;;;;;5135264;27;20658;-77
2020/12/08 10:25:20;;;;;;;27.50;12.30;;;5.10;99.90;;;;;;5134944;27;20205;-77
2020/12/08 10:27:48;;;;;;;26.90;12.60;;;4.90;99.90;;;;;;5134856;27;20204;-76
2020/12/08 10:30:15;;;;;;;22.07;12.07;;;4.90;99.90;;;;;;5134922;27;20196;-76
2020/12/08 10:32:41;;;;;;;23.23;12.37;;;5.00;99.90;;;;;;5133942;27;20190;-76
2020/12/08 10:35:07;;;;;;;22.30;12.20;;;5.00;99.90;;;;;;5135172;27;20277;-76
2020/12/08 10:37:34;;;;;;;25.63;12.00;;;4.70;99.90;;;;;;5135146;27;20221;-77
2020/12/08 10:40:00;;;;;;;28.23;13.30;;;5.00;99.90;;;;;;5134818;27;20221;-77
2020/12/08 10:42:27;;;;;;;22.10;12.33;;;5.10;99.90;;;;;;5135078;27;20195;-77
2020/12/08 10:44:54;;;;;;;24.73;12.57;;;5.10;99.90;;;;;;5135065;27;20523;-76
2020/12/08 10:47:20;;;;;;;25.80;12.33;;;5.10;99.90;;;;;;5134510;27;20198;-76
2020/12/08 10:49:46;;;;;;;19.27;11.17;;;5.20;99.90;;;;;;5134747;27;20654;-77
2020/12/08 10:52:13;;;;;;;25.07;12.43;;;5.30;99.90;;;;;;5134855;27;20315;-77
2020/12/08 10:54:39;;;;;;;21.00;12.07;;;5.30;99.90;;;;;;5134441;27;20648;-77
2020/12/08 10:57:05;;;;;;;23.80;11.87;;;5.20;99.90;;;;;;5134225;27;20245;-76
2020/12/08 10:59:32;;;;;;;19.83;11.40;;;5.20;99.90;;;;;;5134797;27;20205;-76
2020/12/08 11:01:59;;;;;;;25.37;12.03;;;5.10;99.90;;;;;;5133624;27;20573;-75
2020/12/08 11:04:25;;;;;;;22.20;11.90;;;4.90;99.90;;;;;;5134380;27;20556;-76
2020/12/08 11:06:51;;;;;;;22.07;12.37;;;4.70;99.90;;;;;;5134195;27;20203;-75
2020/12/08 11:09:18;;;;;;;23.73;12.17;;;4.50;99.90;;;;;;5134264;27;20643;-76
2020/12/08 11:11:44;;;;;;;24.27;12.97;;;4.30;99.90;;;;;;5134484;27;20209;-76
2020/12/08 11:14:10;;;;;;;24.30;12.53;;;4.50;99.90;;;;;;5133958;27;20212;-76
2020/12/08 11:16:37;;;;;;;27.73;13.07;;;4.70;99.90;;;;;;5133339;27;20231;-75
2020/12/08 11:19:04;;;;;;;19.70;12.00;;;4.70;99.90;;;;;;5133641;27;20213;-75
2020/12/08 11:21:31;;;;;;;21.30;12.53;;;4.50;99.90;;;;;;5133722;27;20198;-77
2020/12/08 11:23:58;;;;;;;19.50;11.83;;;4.50;99.90;;;;;;5134186;27;20199;-75
2020/12/08 11:26:28;;;;;;;25.20;12.30;;;4.50;99.90;;;;;;5133907;27;20202;-74
2020/12/08 11:28:55;;;;;;;24.90;11.73;;;4.50;99.90;;;;;;5128775;27;20198;-76
2020/12/08 11:31:22;;;;;;;26.87;12.17;;;4.60;99.90;;;;;;5130036;27;20561;-76
2020/12/08 11:33:48;;;;;;;24.17;13.00;;;4.50;99.90;;;;;;5129800;27;20194;-76
2020/12/08 11:36:15;;;;;;;21.47;12.57;;;4.50;99.90;;;;;;5127410;27;20657;-76
2020/12/08 11:38:42;;;;;;;26.43;12.67;;;4.70;99.90;;;;;;5132112;27;20277;-75
2020/12/08 11:41:08;;;;;;;24.93;12.50;;;4.80;99.90;;;;;;5132469;27;20231;-76
2020/12/08 11:43:36;;;;;;;20.10;11.70;;;5.00;99.90;;;;;;5132672;27;20196;-75
2020/12/08 11:46:03;;;;;;;20.37;10.47;;;5.10;99.90;;;;;;5132447;27;20218;-76
2020/12/08 11:48:30;;;;;;;24.23;12.27;;;4.90;99.90;;;;;;5128105;27;20202;-76
2020/12/08 11:50:56;;;;;;;20.97;10.37;;;4.70;99.90;;;;;;5131621;27;20203;-75
2020/12/08 11:53:24;;;;;;;23.93;11.53;;;4.80;99.90;;;;;;5131318;27;20203;-75
2020/12/08 11:55:51;;;;;;;21.50;11.87;;;5.00;99.90;;;;;;5132876;27;20282;-76
2020/12/08 11:58:17;;;;;;;24.13;11.13;;;5.10;99.90;;;;;;5133249;27;20222;-75
2020/12/08 12:00:44;;;;;;;20.53;12.00;;;5.00;99.90;;;;;;5131593;27;20196;-76
2020/12/08 12:03:10;;;;;;;20.57;11.73;;;5.00;99.90;;;;;;5119596;27;20889;-78
2020/12/08 12:05:37;;;;;;;20.97;11.30;;;5.00;99.90;;;;;;5129541;27;20699;-76
2020/12/08 12:08:04;;;;;;;20.03;11.43;;;5.00;99.90;;;;;;5131116;27;20213;-77
2020/12/08 12:10:31;;;;;;;19.40;11.57;;;5.00;99.90;;;;;;5127535;27;20296;-76
2020/12/08 12:12:58;;;;;;;20.30;11.90;;;5.00;99.90;;;;;;5126725;27;20696;-76
2020/12/08 12:15:24;;;;;;;25.33;11.73;;;5.20;99.90;;;;;;5108372;27;20306;-77
2020/12/08 12:17:51;;;;;;;22.43;11.57;;;5.10;99.90;;;;;;5125494;27;20222;-76
2020/12/08 12:20:17;;;;;;;22.43;10.93;;;5.10;99.90;;;;;;5124247;27;20195;-76
2020/12/08 12:22:43;;;;;;;18.40;11.10;;;5.10;99.90;;;;;;5124172;27;20664;-78
2020/12/08 12:25:10;;;;;;;18.90;11.30;;;5.00;99.90;;;;;;5124324;27;20293;-79
2020/12/08 12:27:37;;;;;;;19.67;11.03;;;5.00;99.90;;;;;;5125096;27;21465;-79
2020/12/08 12:30:04;;;;;;;20.90;11.50;;;5.20;99.90;;;;;;5122828;27;20290;-77
2020/12/08 12:32:30;;;;;;;21.10;11.70;;;5.40;99.90;;;;;;5122244;27;20199;-77
2020/12/08 12:34:57;;;;;;;19.17;10.50;;;5.70;99.90;;;;;;5125485;27;20205;-79
2020/12/08 12:37:24;;;;;;;18.27;10.53;;;5.90;99.90;;;;;;5123572;28;20264;-78
2020/12/08 12:39:50;;;;;;;22.10;10.43;;;6.10;99.90;;;;;;5123793;27;20218;-76